FDX1681 KMCO-KIND
Flight info
| Callsign | FDX1681 |
|---|---|
| Flight time | 1h 59m |
| Altitude | 38000 |
| Route | RDSOX1 JFRYS BRUTS Q118 THRSR Q79 SWAPP HAGAL GIIBS4 |
| Aircraft | MD11/H-SDE1E2E3FGHIJ2J3J4J5M1RWXY/LB1D1 |
Departure
| Time | 2026-04-21 18:44 |
|---|---|
| Airport | Orlando International Airport (KMCO) |
Arrival
| Time | 2026-04-21 20:44 |
|---|---|
| Airport | Indianapolis International Airport (KIND) |
| Time | Latitude | Longitude | Altitude | Speed | Heading |
|---|---|---|---|---|---|
| 2026-04-21 18:22 | 28.41474 | -81.33692 | 108 ft | 0 kts | 359° |
| 2026-04-21 18:32 | 28.41470 | -81.33692 | 108 ft | 3 kts | 1° |
| 2026-04-21 18:32 | 28.41452 | -81.33694 | 106 ft | 4 kts | 49° |
| 2026-04-21 18:32 | 28.41444 | -81.33715 | 106 ft | 4 kts | 88° |
| 2026-04-21 18:33 | 28.41443 | -81.33728 | 107 ft | 0 kts | 91° |
| 2026-04-21 18:36 | 28.41432 | -81.33692 | 105 ft | 7 kts | 115° |
| 2026-04-21 18:36 | 28.41414 | -81.33641 | 107 ft | 9 kts | 106° |
| 2026-04-21 18:36 | 28.41405 | -81.33577 | 108 ft | 8 kts | 97° |
| 2026-04-21 18:37 | 28.41402 | -81.33514 | 109 ft | 10 kts | 90° |
| 2026-04-21 18:37 | 28.41404 | -81.33413 | 110 ft | 14 kts | 90° |
| 2026-04-21 18:37 | 28.41405 | -81.33318 | 111 ft | 10 kts | 89° |
| 2026-04-21 18:37 | 28.41405 | -81.33236 | 111 ft | 12 kts | 90° |
| 2026-04-21 18:38 | 28.41405 | -81.33127 | 109 ft | 11 kts | 91° |
| 2026-04-21 18:38 | 28.41418 | -81.33054 | 113 ft | 9 kts | 62° |
| 2026-04-21 18:38 | 28.41450 | -81.33006 | 113 ft | 7 kts | 48° |
| 2026-04-21 18:38 | 28.41494 | -81.32957 | 112 ft | 8 kts | 44° |
| 2026-04-21 18:39 | 28.41526 | -81.32910 | 112 ft | 6 kts | 65° |
| 2026-04-21 18:39 | 28.41535 | -81.32873 | 112 ft | 0 kts | 80° |
| 2026-04-21 18:40 | 28.41536 | -81.32864 | 114 ft | 5 kts | 83° |
| 2026-04-21 18:40 | 28.41538 | -81.32806 | 112 ft | 10 kts | 89° |
| 2026-04-21 18:40 | 28.41538 | -81.32791 | 113 ft | 0 kts | 89° |
| 2026-04-21 18:40 | 28.41538 | -81.32783 | 113 ft | 5 kts | 89° |
| 2026-04-21 18:41 | 28.41539 | -81.32745 | 113 ft | 5 kts | 89° |
| 2026-04-21 18:41 | 28.41543 | -81.32688 | 117 ft | 8 kts | 74° |
| 2026-04-21 18:41 | 28.41584 | -81.32664 | 117 ft | 8 kts | 6° |
| 2026-04-21 18:41 | 28.41609 | -81.32663 | 116 ft | 0 kts | 0° |
| 2026-04-21 18:43 | 28.41692 | -81.32663 | 114 ft | 41 kts | 360° |
| 2026-04-21 18:44 | 28.42316 | -81.32669 | 110 ft | 136 kts | 360° |
| 2026-04-21 18:44 | 28.43483 | -81.32702 | 296 ft | 188 kts | 5° |
| 2026-04-21 18:44 | 28.44834 | -81.32730 | 1242 ft | 194 kts | 6° |
| 2026-04-21 18:44 | 28.46174 | -81.32743 | 2402 ft | 192 kts | 5° |
| 2026-04-21 18:45 | 28.47513 | -81.32780 | 3480 ft | 194 kts | 4° |
| 2026-04-21 18:45 | 28.48944 | -81.32816 | 3998 ft | 225 kts | 5° |
| 2026-04-21 18:45 | 28.50577 | -81.32810 | 4759 ft | 238 kts | 4° |
| 2026-04-21 18:45 | 28.52246 | -81.32809 | 5917 ft | 247 kts | 5° |
| 2026-04-21 18:46 | 28.53957 | -81.32845 | 6299 ft | 248 kts | 357° |
| 2026-04-21 18:46 | 28.55637 | -81.33366 | 6689 ft | 254 kts | 343° |
| 2026-04-21 18:46 | 28.57274 | -81.34147 | 6917 ft | 256 kts | 337° |
| 2026-04-21 18:46 | 28.58752 | -81.35359 | 6954 ft | 276 kts | 314° |
| 2026-04-21 18:47 | 28.59659 | -81.37318 | 6959 ft | 288 kts | 285° |
| 2026-04-21 18:47 | 28.59869 | -81.39603 | 6971 ft | 292 kts | 272° |
| 2026-04-21 18:47 | 28.59847 | -81.41906 | 6964 ft | 291 kts | 269° |
| 2026-04-21 18:47 | 28.59784 | -81.44217 | 6962 ft | 292 kts | 269° |
| 2026-04-21 18:48 | 28.59725 | -81.46538 | 6965 ft | 294 kts | 269° |
| 2026-04-21 18:48 | 28.59588 | -81.48851 | 6959 ft | 295 kts | 259° |
| 2026-04-21 18:48 | 28.58966 | -81.51091 | 7247 ft | 295 kts | 247° |
| 2026-04-21 18:48 | 28.58148 | -81.53215 | 8451 ft | 296 kts | 246° |
| 2026-04-21 18:49 | 28.57304 | -81.55333 | 9641 ft | 294 kts | 246° |
| 2026-04-21 18:49 | 28.56441 | -81.57490 | 10310 ft | 314 kts | 247° |
| 2026-04-21 18:49 | 28.55821 | -81.59049 | 10410 ft | 338 kts | 247° |
| 2026-04-21 18:49 | 28.54453 | -81.62492 | 11106 ft | 366 kts | 247° |
| 2026-04-21 18:50 | 28.53396 | -81.65145 | 12129 ft | 371 kts | 248° |
| 2026-04-21 18:50 | 28.52327 | -81.67830 | 13070 ft | 375 kts | 248° |
| 2026-04-21 18:50 | 28.51247 | -81.70544 | 14012 ft | 379 kts | 248° |
| 2026-04-21 18:50 | 28.50153 | -81.73292 | 14852 ft | 383 kts | 248° |
| 2026-04-21 18:51 | 28.49052 | -81.76057 | 15684 ft | 385 kts | 248° |
| 2026-04-21 18:51 | 28.47943 | -81.78843 | 16469 ft | 389 kts | 248° |
| 2026-04-21 18:51 | 28.46825 | -81.81649 | 17252 ft | 391 kts | 248° |
| 2026-04-21 18:51 | 28.45698 | -81.84475 | 18024 ft | 395 kts | 248° |
| 2026-04-21 18:52 | 28.44558 | -81.87333 | 18710 ft | 398 kts | 248° |
| 2026-04-21 18:52 | 28.43423 | -81.90205 | 19347 ft | 399 kts | 250° |
| 2026-04-21 18:52 | 28.42631 | -81.93227 | 19777 ft | 398 kts | 263° |
| 2026-04-21 18:52 | 28.42420 | -81.96354 | 20123 ft | 397 kts | 271° |
| 2026-04-21 18:53 | 28.42470 | -81.99488 | 20656 ft | 398 kts | 274° |
| 2026-04-21 18:53 | 28.42593 | -82.02627 | 21384 ft | 398 kts | 274° |
| 2026-04-21 18:53 | 28.42714 | -82.05778 | 22100 ft | 399 kts | 274° |
| 2026-04-21 18:53 | 28.42814 | -82.08933 | 22826 ft | 400 kts | 273° |
| 2026-04-21 18:54 | 28.42893 | -82.12097 | 23565 ft | 401 kts | 273° |
| 2026-04-21 18:54 | 28.42958 | -82.15269 | 24226 ft | 403 kts | 273° |
| 2026-04-21 18:54 | 28.43014 | -82.18459 | 24795 ft | 406 kts | 273° |
| 2026-04-21 18:54 | 28.43065 | -82.21678 | 25357 ft | 409 kts | 273° |
| 2026-04-21 18:55 | 28.43098 | -82.23819 | 25737 ft | 411 kts | 273° |
| 2026-04-21 18:55 | 28.43163 | -82.28193 | 26484 ft | 416 kts | 274° |
| 2026-04-21 18:55 | 28.43195 | -82.30378 | 26864 ft | 419 kts | 274° |
| 2026-04-21 18:55 | 28.43312 | -82.34818 | 27582 ft | 422 kts | 277° |
| 2026-04-21 18:56 | 28.43519 | -82.37016 | 27947 ft | 423 kts | 281° |
| 2026-04-21 18:56 | 28.44183 | -82.40274 | 28474 ft | 424 kts | 289° |
| 2026-04-21 18:56 | 28.45326 | -82.43376 | 28896 ft | 429 kts | 298° |
| 2026-04-21 18:56 | 28.46945 | -82.46225 | 29495 ft | 430 kts | 308° |
| 2026-04-21 18:57 | 28.48965 | -82.48748 | 30045 ft | 434 kts | 316° |
| 2026-04-21 18:57 | 28.51343 | -82.50887 | 30501 ft | 439 kts | 325° |
| 2026-04-21 18:57 | 28.54019 | -82.52590 | 30905 ft | 443 kts | 332° |
| 2026-04-21 18:57 | 28.56862 | -82.53985 | 31288 ft | 447 kts | 335° |
| 2026-04-21 18:58 | 28.59761 | -82.55258 | 31800 ft | 446 kts | 336° |
| 2026-04-21 18:58 | 28.62649 | -82.56503 | 32313 ft | 443 kts | 336° |
| 2026-04-21 18:58 | 28.65521 | -82.57765 | 32853 ft | 441 kts | 335° |
| 2026-04-21 18:58 | 28.68369 | -82.59047 | 33363 ft | 439 kts | 335° |
| 2026-04-21 18:59 | 28.71189 | -82.60342 | 33866 ft | 436 kts | 335° |
| 2026-04-21 18:59 | 28.73992 | -82.61644 | 34339 ft | 434 kts | 334° |
| 2026-04-21 18:59 | 28.76784 | -82.62948 | 34743 ft | 433 kts | 334° |
| 2026-04-21 18:59 | 28.79561 | -82.64249 | 35128 ft | 431 kts | 334° |
| 2026-04-21 19:00 | 28.82334 | -82.65551 | 35439 ft | 431 kts | 333° |
| 2026-04-21 19:00 | 28.85114 | -82.66856 | 35720 ft | 432 kts | 333° |
| 2026-04-21 19:00 | 28.87892 | -82.68160 | 35997 ft | 433 kts | 333° |
| 2026-04-21 19:00 | 28.90679 | -82.69469 | 36271 ft | 433 kts | 333° |
| 2026-04-21 19:01 | 28.93465 | -82.70777 | 36528 ft | 434 kts | 332° |
| 2026-04-21 19:01 | 28.96259 | -82.72090 | 36789 ft | 434 kts | 332° |
| 2026-04-21 19:01 | 28.99058 | -82.73405 | 37048 ft | 435 kts | 332° |
| 2026-04-21 19:01 | 29.01856 | -82.74721 | 37291 ft | 435 kts | 332° |
| 2026-04-21 19:02 | 29.04660 | -82.76040 | 37545 ft | 436 kts | 332° |
| 2026-04-21 19:02 | 29.07466 | -82.77361 | 37808 ft | 436 kts | 331° |
| 2026-04-21 19:02 | 29.10272 | -82.78683 | 38036 ft | 437 kts | 331° |
| 2026-04-21 19:02 | 29.13081 | -82.80007 | 38232 ft | 438 kts | 331° |
| 2026-04-21 19:03 | 29.15908 | -82.81342 | 38271 ft | 440 kts | 331° |
| 2026-04-21 19:03 | 29.21595 | -82.84028 | 38285 ft | 443 kts | 331° |
| 2026-04-21 19:04 | 29.27289 | -82.86717 | 38277 ft | 443 kts | 331° |
| 2026-04-21 19:04 | 29.32947 | -82.89400 | 38283 ft | 443 kts | 331° |
| 2026-04-21 19:05 | 29.38675 | -82.92123 | 38284 ft | 443 kts | 331° |
| 2026-04-21 19:05 | 29.44364 | -82.94824 | 38285 ft | 443 kts | 331° |
| 2026-04-21 19:06 | 29.50056 | -82.97528 | 38286 ft | 443 kts | 331° |
| 2026-04-21 19:06 | 29.55704 | -83.00215 | 38284 ft | 443 kts | 331° |
| 2026-04-21 19:07 | 29.61393 | -83.02924 | 38276 ft | 443 kts | 331° |
| 2026-04-21 19:07 | 29.67079 | -83.05634 | 38286 ft | 442 kts | 331° |
| 2026-04-21 19:08 | 29.72764 | -83.08346 | 38265 ft | 442 kts | 331° |
| 2026-04-21 19:08 | 29.78443 | -83.11058 | 38285 ft | 442 kts | 331° |
| 2026-04-21 19:09 | 29.84122 | -83.13774 | 38281 ft | 442 kts | 331° |
| 2026-04-21 19:09 | 29.89799 | -83.16493 | 38285 ft | 442 kts | 331° |
| 2026-04-21 19:10 | 29.95490 | -83.19222 | 38289 ft | 443 kts | 331° |
| 2026-04-21 19:10 | 30.01177 | -83.21951 | 38297 ft | 442 kts | 331° |
| 2026-04-21 19:11 | 30.06861 | -83.24683 | 38297 ft | 442 kts | 331° |
| 2026-04-21 19:11 | 30.12545 | -83.27418 | 38303 ft | 442 kts | 331° |
| 2026-04-21 19:12 | 30.18225 | -83.30155 | 38301 ft | 442 kts | 331° |
| 2026-04-21 19:12 | 30.23908 | -83.32901 | 38316 ft | 442 kts | 331° |
| 2026-04-21 19:13 | 30.29576 | -83.35658 | 38300 ft | 442 kts | 331° |
| 2026-04-21 19:13 | 30.35248 | -83.38417 | 38303 ft | 442 kts | 331° |
| 2026-04-21 19:14 | 30.40916 | -83.41174 | 38304 ft | 442 kts | 331° |
| 2026-04-21 19:14 | 30.46586 | -83.43933 | 38308 ft | 442 kts | 331° |
| 2026-04-21 19:15 | 30.52253 | -83.46695 | 38304 ft | 442 kts | 331° |
| 2026-04-21 19:15 | 30.57920 | -83.49460 | 38316 ft | 442 kts | 331° |
| 2026-04-21 19:16 | 30.63591 | -83.52231 | 38316 ft | 442 kts | 331° |
| 2026-04-21 19:16 | 30.69260 | -83.55005 | 38307 ft | 443 kts | 331° |
| 2026-04-21 19:17 | 30.77784 | -83.59182 | 38313 ft | 443 kts | 331° |
| 2026-04-21 19:17 | 30.83463 | -83.61968 | 38322 ft | 442 kts | 331° |
| 2026-04-21 19:18 | 30.89124 | -83.64750 | 38312 ft | 442 kts | 331° |
| 2026-04-21 19:18 | 30.94753 | -83.67520 | 38314 ft | 442 kts | 331° |
| 2026-04-21 19:19 | 31.00415 | -83.70312 | 38312 ft | 442 kts | 331° |
| 2026-04-21 19:19 | 31.06073 | -83.73115 | 38313 ft | 442 kts | 331° |
| 2026-04-21 19:20 | 31.11732 | -83.75915 | 38319 ft | 441 kts | 331° |
| 2026-04-21 19:20 | 31.17384 | -83.78712 | 38316 ft | 441 kts | 331° |
| 2026-04-21 19:21 | 31.23035 | -83.81511 | 38303 ft | 441 kts | 331° |
| 2026-04-21 19:21 | 31.28685 | -83.84312 | 38314 ft | 441 kts | 331° |
| 2026-04-21 19:22 | 31.34333 | -83.87117 | 38310 ft | 441 kts | 331° |
| 2026-04-21 19:22 | 31.39981 | -83.89925 | 38326 ft | 441 kts | 331° |
| 2026-04-21 19:23 | 31.45620 | -83.92732 | 38326 ft | 441 kts | 331° |
| 2026-04-21 19:23 | 31.51362 | -83.95324 | 38329 ft | 447 kts | 339° |
| 2026-04-21 19:24 | 31.57483 | -83.96867 | 38327 ft | 452 kts | 343° |
| 2026-04-21 19:24 | 31.63679 | -83.98136 | 38325 ft | 452 kts | 343° |
| 2026-04-21 19:25 | 31.69863 | -83.99452 | 38326 ft | 451 kts | 343° |
| 2026-04-21 19:25 | 31.76028 | -84.00816 | 38330 ft | 451 kts | 343° |
| 2026-04-21 19:26 | 31.82189 | -84.02196 | 38326 ft | 451 kts | 343° |
| 2026-04-21 19:26 | 31.88350 | -84.03579 | 38328 ft | 451 kts | 343° |
| 2026-04-21 19:27 | 31.94509 | -84.04961 | 38335 ft | 451 kts | 343° |
| 2026-04-21 19:27 | 32.00658 | -84.06342 | 38301 ft | 449 kts | 343° |
| 2026-04-21 19:28 | 32.06799 | -84.07724 | 38295 ft | 449 kts | 343° |
| 2026-04-21 19:28 | 32.12934 | -84.09106 | 38293 ft | 449 kts | 343° |
| 2026-04-21 19:29 | 32.19073 | -84.10492 | 38296 ft | 449 kts | 343° |
| 2026-04-21 19:29 | 32.25206 | -84.11877 | 38302 ft | 448 kts | 343° |
| 2026-04-21 19:30 | 32.31331 | -84.13262 | 38308 ft | 448 kts | 343° |
| 2026-04-21 19:30 | 32.37450 | -84.14653 | 38323 ft | 448 kts | 343° |
| 2026-04-21 19:31 | 32.43572 | -84.16046 | 38318 ft | 448 kts | 343° |
| 2026-04-21 19:31 | 32.49701 | -84.17440 | 38337 ft | 448 kts | 343° |
| 2026-04-21 19:32 | 32.55816 | -84.18830 | 38321 ft | 447 kts | 343° |
| 2026-04-21 19:32 | 32.61933 | -84.20224 | 38324 ft | 447 kts | 343° |
| 2026-04-21 19:33 | 32.68041 | -84.21617 | 38332 ft | 447 kts | 343° |
| 2026-04-21 19:33 | 32.74152 | -84.23013 | 38343 ft | 447 kts | 342° |
| 2026-04-21 19:34 | 32.80263 | -84.24411 | 38353 ft | 447 kts | 343° |
| 2026-04-21 19:34 | 32.86371 | -84.25810 | 38358 ft | 447 kts | 343° |
| 2026-04-21 19:35 | 32.95530 | -84.27912 | 38358 ft | 447 kts | 342° |
| 2026-04-21 19:36 | 33.01634 | -84.29315 | 38351 ft | 447 kts | 342° |
| 2026-04-21 19:36 | 33.07748 | -84.30723 | 38342 ft | 447 kts | 342° |
| 2026-04-21 19:37 | 33.13860 | -84.32132 | 38352 ft | 447 kts | 342° |
| 2026-04-21 19:37 | 33.19969 | -84.33547 | 38361 ft | 447 kts | 342° |
| 2026-04-21 19:38 | 33.26079 | -84.34964 | 38371 ft | 447 kts | 342° |
| 2026-04-21 19:38 | 33.31152 | -84.36139 | 38376 ft | 447 kts | 342° |
| 2026-04-21 19:39 | 33.37260 | -84.37555 | 38343 ft | 447 kts | 342° |
| 2026-04-21 19:39 | 33.43373 | -84.38974 | 38344 ft | 447 kts | 342° |
| 2026-04-21 19:40 | 33.49490 | -84.40396 | 38346 ft | 448 kts | 342° |
| 2026-04-21 19:40 | 33.55604 | -84.41819 | 38358 ft | 447 kts | 342° |
| 2026-04-21 19:41 | 33.61713 | -84.43241 | 38352 ft | 447 kts | 342° |
| 2026-04-21 19:41 | 33.67823 | -84.44614 | 38349 ft | 447 kts | 343° |
| 2026-04-21 19:42 | 33.73943 | -84.45956 | 38343 ft | 447 kts | 343° |
| 2026-04-21 19:42 | 33.80065 | -84.47299 | 38339 ft | 447 kts | 343° |
| 2026-04-21 19:43 | 33.86182 | -84.48645 | 38337 ft | 447 kts | 343° |
| 2026-04-21 19:43 | 33.92291 | -84.49992 | 38330 ft | 446 kts | 343° |
| 2026-04-21 19:44 | 33.98395 | -84.51341 | 38332 ft | 446 kts | 343° |
| 2026-04-21 19:44 | 34.04484 | -84.52738 | 38359 ft | 445 kts | 342° |
| 2026-04-21 19:45 | 34.10529 | -84.54289 | 38364 ft | 444 kts | 341° |
| 2026-04-21 19:45 | 34.16563 | -84.55870 | 38346 ft | 443 kts | 341° |
| 2026-04-21 19:46 | 34.22593 | -84.57443 | 38330 ft | 443 kts | 341° |
| 2026-04-21 19:46 | 34.28622 | -84.59013 | 38336 ft | 443 kts | 341° |
| 2026-04-21 19:47 | 34.34655 | -84.60583 | 38332 ft | 443 kts | 341° |
| 2026-04-21 19:47 | 34.40686 | -84.62155 | 38333 ft | 443 kts | 341° |
| 2026-04-21 19:48 | 34.46701 | -84.63725 | 38316 ft | 442 kts | 341° |
| 2026-04-21 19:48 | 34.52720 | -84.65300 | 38315 ft | 442 kts | 341° |
| 2026-04-21 19:49 | 34.58734 | -84.66863 | 38303 ft | 442 kts | 342° |
| 2026-04-21 19:49 | 34.64785 | -84.68376 | 38318 ft | 444 kts | 342° |
| 2026-04-21 19:50 | 34.69807 | -84.69616 | 38314 ft | 443 kts | 342° |
| 2026-04-21 19:50 | 34.76867 | -84.71364 | 38312 ft | 443 kts | 342° |
| 2026-04-21 19:51 | 34.82911 | -84.72865 | 38311 ft | 443 kts | 342° |
| 2026-04-21 19:51 | 34.88954 | -84.74370 | 38324 ft | 443 kts | 342° |
| 2026-04-21 19:52 | 34.94984 | -84.75873 | 38313 ft | 442 kts | 342° |
| 2026-04-21 19:52 | 35.01018 | -84.77379 | 38309 ft | 442 kts | 342° |
| 2026-04-21 19:53 | 35.07047 | -84.78887 | 38304 ft | 442 kts | 342° |
| 2026-04-21 19:53 | 35.13076 | -84.80397 | 38301 ft | 443 kts | 342° |
| 2026-04-21 19:54 | 35.19116 | -84.81912 | 38279 ft | 443 kts | 342° |
| 2026-04-21 19:54 | 35.25157 | -84.83429 | 38277 ft | 443 kts | 342° |
| 2026-04-21 19:55 | 35.31200 | -84.84949 | 38273 ft | 443 kts | 342° |
| 2026-04-21 19:55 | 35.37239 | -84.86471 | 38278 ft | 443 kts | 342° |
| 2026-04-21 19:56 | 35.43279 | -84.88001 | 38284 ft | 444 kts | 343° |
| 2026-04-21 19:56 | 35.49339 | -84.89538 | 38297 ft | 445 kts | 343° |
| 2026-04-21 19:57 | 35.55399 | -84.91073 | 38295 ft | 445 kts | 343° |
| 2026-04-21 19:57 | 35.61463 | -84.92610 | 38293 ft | 445 kts | 343° |
| 2026-04-21 19:58 | 35.67521 | -84.94146 | 38294 ft | 445 kts | 343° |
| 2026-04-21 19:58 | 35.73598 | -84.95689 | 38290 ft | 446 kts | 343° |
| 2026-04-21 19:59 | 35.79673 | -84.97232 | 38290 ft | 446 kts | 343° |
| 2026-04-21 19:59 | 35.85748 | -84.98778 | 38290 ft | 446 kts | 343° |
| 2026-04-21 20:00 | 35.91823 | -85.00327 | 38318 ft | 446 kts | 343° |
| 2026-04-21 20:00 | 35.97902 | -85.01879 | 38321 ft | 446 kts | 343° |
| 2026-04-21 20:01 | 36.03978 | -85.03433 | 38305 ft | 446 kts | 343° |
| 2026-04-21 20:01 | 36.10056 | -85.04990 | 38295 ft | 446 kts | 343° |
| 2026-04-21 20:02 | 36.16143 | -85.06552 | 38315 ft | 447 kts | 343° |
| 2026-04-21 20:02 | 36.22237 | -85.08117 | 38289 ft | 447 kts | 343° |
| 2026-04-21 20:03 | 36.28333 | -85.09686 | 38281 ft | 447 kts | 343° |
| 2026-04-21 20:03 | 36.34423 | -85.11256 | 38287 ft | 448 kts | 343° |
| 2026-04-21 20:04 | 36.40523 | -85.12831 | 38296 ft | 448 kts | 343° |
| 2026-04-21 20:04 | 36.46609 | -85.14412 | 38269 ft | 447 kts | 343° |
| 2026-04-21 20:05 | 36.52702 | -85.15995 | 38276 ft | 447 kts | 343° |
| 2026-04-21 20:05 | 36.58789 | -85.17575 | 38270 ft | 447 kts | 343° |
| 2026-04-21 20:06 | 36.64884 | -85.19145 | 38266 ft | 447 kts | 343° |
| 2026-04-21 20:06 | 36.70978 | -85.20699 | 38268 ft | 447 kts | 343° |
| 2026-04-21 20:07 | 36.77070 | -85.22253 | 38267 ft | 447 kts | 343° |
| 2026-04-21 20:07 | 36.82130 | -85.23547 | 38266 ft | 447 kts | 343° |
| 2026-04-21 20:08 | 36.89249 | -85.25371 | 38264 ft | 447 kts | 343° |
| 2026-04-21 20:08 | 36.95337 | -85.26933 | 38259 ft | 446 kts | 343° |
| 2026-04-21 20:09 | 37.01422 | -85.28497 | 38255 ft | 447 kts | 343° |
| 2026-04-21 20:09 | 37.07507 | -85.30064 | 38250 ft | 447 kts | 343° |
| 2026-04-21 20:10 | 37.13596 | -85.31634 | 38251 ft | 446 kts | 343° |
| 2026-04-21 20:10 | 37.19668 | -85.33202 | 38245 ft | 445 kts | 343° |
| 2026-04-21 20:11 | 37.25721 | -85.34768 | 38238 ft | 444 kts | 343° |
| 2026-04-21 20:11 | 37.31770 | -85.36336 | 38235 ft | 444 kts | 343° |
| 2026-04-21 20:12 | 37.37814 | -85.37905 | 38230 ft | 443 kts | 343° |
| 2026-04-21 20:12 | 37.42830 | -85.39210 | 38233 ft | 442 kts | 343° |
| 2026-04-21 20:13 | 37.49866 | -85.41051 | 38220 ft | 442 kts | 343° |
| 2026-04-21 20:13 | 37.55882 | -85.42625 | 38198 ft | 441 kts | 343° |
| 2026-04-21 20:14 | 37.61901 | -85.44199 | 38197 ft | 442 kts | 343° |
| 2026-04-21 20:14 | 37.67923 | -85.45775 | 38189 ft | 442 kts | 343° |
| 2026-04-21 20:15 | 37.73939 | -85.47352 | 38182 ft | 441 kts | 342° |
| 2026-04-21 20:15 | 37.79948 | -85.48930 | 38184 ft | 441 kts | 343° |
| 2026-04-21 20:16 | 37.85915 | -85.50500 | 38183 ft | 441 kts | 342° |
| 2026-04-21 20:16 | 37.91953 | -85.52090 | 38185 ft | 440 kts | 342° |
| 2026-04-21 20:17 | 37.97943 | -85.53671 | 38183 ft | 440 kts | 342° |
| 2026-04-21 20:17 | 38.00950 | -85.54467 | 37753 ft | 441 kts | 342° |
| 2026-04-21 20:17 | 38.03947 | -85.55260 | 37304 ft | 440 kts | 342° |
| 2026-04-21 20:17 | 38.06956 | -85.56057 | 36767 ft | 442 kts | 342° |
| 2026-04-21 20:18 | 38.08949 | -85.56585 | 36438 ft | 443 kts | 343° |
| 2026-04-21 20:18 | 38.11970 | -85.57387 | 35935 ft | 444 kts | 342° |
| 2026-04-21 20:18 | 38.15003 | -85.58191 | 35433 ft | 446 kts | 343° |
| 2026-04-21 20:18 | 38.18072 | -85.58894 | 34921 ft | 449 kts | 346° |
| 2026-04-21 20:19 | 38.21169 | -85.59435 | 34390 ft | 448 kts | 347° |
| 2026-04-21 20:19 | 38.24278 | -85.59898 | 33812 ft | 453 kts | 348° |
| 2026-04-21 20:19 | 38.27415 | -85.60340 | 33231 ft | 455 kts | 348° |
| 2026-04-21 20:19 | 38.30553 | -85.60779 | 32671 ft | 452 kts | 348° |
| 2026-04-21 20:20 | 38.33669 | -85.61220 | 32107 ft | 453 kts | 348° |
| 2026-04-21 20:20 | 38.36821 | -85.61680 | 31561 ft | 457 kts | 348° |
| 2026-04-21 20:20 | 38.39970 | -85.62149 | 30991 ft | 454 kts | 348° |
| 2026-04-21 20:20 | 38.43094 | -85.62620 | 30400 ft | 450 kts | 348° |
| 2026-04-21 20:21 | 38.46185 | -85.63088 | 29765 ft | 445 kts | 348° |
| 2026-04-21 20:21 | 38.49244 | -85.63553 | 29145 ft | 441 kts | 348° |
| 2026-04-21 20:21 | 38.52277 | -85.64015 | 28563 ft | 437 kts | 348° |
| 2026-04-21 20:21 | 38.55283 | -85.64473 | 27996 ft | 433 kts | 348° |
| 2026-04-21 20:22 | 38.58269 | -85.64924 | 27462 ft | 430 kts | 348° |
| 2026-04-21 20:22 | 38.64172 | -85.65795 | 26237 ft | 423 kts | 348° |
| 2026-04-21 20:22 | 38.67084 | -85.66222 | 25642 ft | 420 kts | 348° |
| 2026-04-21 20:23 | 38.69973 | -85.66645 | 25068 ft | 416 kts | 348° |
| 2026-04-21 20:23 | 38.72840 | -85.67066 | 24480 ft | 413 kts | 348° |
| 2026-04-21 20:23 | 38.75681 | -85.67484 | 23902 ft | 409 kts | 348° |
| 2026-04-21 20:23 | 38.78498 | -85.67899 | 23253 ft | 406 kts | 348° |
| 2026-04-21 20:24 | 38.81290 | -85.68310 | 22652 ft | 402 kts | 348° |
| 2026-04-21 20:24 | 38.84060 | -85.68719 | 22060 ft | 399 kts | 348° |
| 2026-04-21 20:24 | 38.86807 | -85.69125 | 21485 ft | 396 kts | 348° |
| 2026-04-21 20:24 | 38.89534 | -85.69528 | 20920 ft | 393 kts | 348° |
| 2026-04-21 20:25 | 38.92236 | -85.69928 | 20360 ft | 390 kts | 347° |
| 2026-04-21 20:25 | 38.94921 | -85.70325 | 19825 ft | 387 kts | 347° |
| 2026-04-21 20:25 | 38.97580 | -85.70719 | 19427 ft | 384 kts | 347° |
| 2026-04-21 20:25 | 39.00229 | -85.71113 | 19172 ft | 382 kts | 347° |
| 2026-04-21 20:26 | 39.02858 | -85.71537 | 19080 ft | 381 kts | 347° |
| 2026-04-21 20:26 | 39.05487 | -85.71990 | 18532 ft | 377 kts | 346° |
| 2026-04-21 20:26 | 39.08054 | -85.72438 | 17923 ft | 368 kts | 346° |
| 2026-04-21 20:26 | 39.10569 | -85.72881 | 17367 ft | 362 kts | 346° |
| 2026-04-21 20:27 | 39.13050 | -85.73321 | 16829 ft | 359 kts | 346° |
| 2026-04-21 20:27 | 39.15474 | -85.73931 | 16321 ft | 352 kts | 338° |
| 2026-04-21 20:27 | 39.17763 | -85.74991 | 15746 ft | 348 kts | 333° |
| 2026-04-21 20:27 | 39.19961 | -85.76228 | 15242 ft | 343 kts | 331° |
| 2026-04-21 20:28 | 39.22127 | -85.77510 | 14738 ft | 342 kts | 331° |
| 2026-04-21 20:28 | 39.24284 | -85.78793 | 14253 ft | 340 kts | 331° |
| 2026-04-21 20:28 | 39.26433 | -85.80062 | 13734 ft | 339 kts | 331° |
| 2026-04-21 20:28 | 39.28571 | -85.81317 | 13278 ft | 337 kts | 331° |
| 2026-04-21 20:29 | 39.30705 | -85.82562 | 12892 ft | 337 kts | 331° |
| 2026-04-21 20:29 | 39.32800 | -85.83873 | 12507 ft | 330 kts | 325° |
| 2026-04-21 20:29 | 39.34670 | -85.85501 | 11990 ft | 321 kts | 319° |
| 2026-04-21 20:29 | 39.36405 | -85.87261 | 11507 ft | 314 kts | 317° |
| 2026-04-21 20:30 | 39.38090 | -85.89044 | 11227 ft | 312 kts | 316° |
| 2026-04-21 20:30 | 39.39767 | -85.90829 | 11123 ft | 312 kts | 316° |
| 2026-04-21 20:30 | 39.41435 | -85.92599 | 11001 ft | 305 kts | 316° |
| 2026-04-21 20:30 | 39.43058 | -85.94310 | 10878 ft | 300 kts | 316° |
| 2026-04-21 20:31 | 39.44674 | -85.96015 | 10774 ft | 299 kts | 316° |
| 2026-04-21 20:31 | 39.46300 | -85.97700 | 10642 ft | 300 kts | 317° |
| 2026-04-21 20:31 | 39.47938 | -85.99338 | 10292 ft | 295 kts | 317° |
| 2026-04-21 20:31 | 39.49562 | -86.00943 | 9757 ft | 291 kts | 317° |
| 2026-04-21 20:32 | 39.51124 | -86.02474 | 9225 ft | 273 kts | 317° |
| 2026-04-21 20:32 | 39.52617 | -86.03940 | 8761 ft | 266 kts | 316° |
| 2026-04-21 20:32 | 39.54071 | -86.05372 | 8331 ft | 259 kts | 316° |
| 2026-04-21 20:32 | 39.55508 | -86.06793 | 7957 ft | 260 kts | 316° |
| 2026-04-21 20:33 | 39.56939 | -86.08208 | 7582 ft | 258 kts | 315° |
| 2026-04-21 20:33 | 39.58363 | -86.09616 | 7189 ft | 257 kts | 315° |
| 2026-04-21 20:33 | 39.59741 | -86.11063 | 6804 ft | 252 kts | 309° |
| 2026-04-21 20:33 | 39.60992 | -86.12620 | 6427 ft | 244 kts | 307° |
| 2026-04-21 20:34 | 39.62141 | -86.14105 | 6040 ft | 223 kts | 306° |
| 2026-04-21 20:34 | 39.63208 | -86.15501 | 5625 ft | 214 kts | 306° |
| 2026-04-21 20:34 | 39.64251 | -86.16880 | 5259 ft | 215 kts | 306° |
| 2026-04-21 20:34 | 39.65416 | -86.18140 | 4867 ft | 225 kts | 322° |
| 2026-04-21 20:35 | 39.66969 | -86.18671 | 4489 ft | 243 kts | 355° |
| 2026-04-21 20:35 | 39.68594 | -86.17962 | 4112 ft | 254 kts | 31° |
| 2026-04-21 20:35 | 39.69946 | -86.16489 | 3768 ft | 254 kts | 44° |
| 2026-04-21 20:35 | 39.71196 | -86.14871 | 3386 ft | 252 kts | 45° |
| 2026-04-21 20:36 | 39.72398 | -86.13304 | 3086 ft | 240 kts | 45° |
| 2026-04-21 20:36 | 39.73582 | -86.11760 | 3006 ft | 241 kts | 44° |
| 2026-04-21 20:36 | 39.74761 | -86.10217 | 3010 ft | 240 kts | 45° |
| 2026-04-21 20:36 | 39.75954 | -86.08682 | 2998 ft | 242 kts | 44° |
| 2026-04-21 20:37 | 39.77130 | -86.07165 | 2987 ft | 233 kts | 44° |
| 2026-04-21 20:37 | 39.78459 | -86.06045 | 2947 ft | 226 kts | 13° |
| 2026-04-21 20:37 | 39.79973 | -86.05988 | 2968 ft | 214 kts | 336° |
| 2026-04-21 20:37 | 39.81228 | -86.06873 | 2999 ft | 203 kts | 315° |
| 2026-04-21 20:38 | 39.82353 | -86.07971 | 2968 ft | 202 kts | 315° |
| 2026-04-21 20:38 | 39.83455 | -86.09042 | 2963 ft | 193 kts | 314° |
| 2026-04-21 20:38 | 39.84526 | -86.10085 | 2959 ft | 190 kts | 310° |
| 2026-04-21 20:38 | 39.85176 | -86.11438 | 2915 ft | 169 kts | 270° |
| 2026-04-21 20:39 | 39.84882 | -86.12800 | 2967 ft | 158 kts | 227° |
| 2026-04-21 20:39 | 39.83987 | -86.13635 | 3005 ft | 161 kts | 215° |
| 2026-04-21 20:39 | 39.83069 | -86.14464 | 2976 ft | 160 kts | 218° |
| 2026-04-21 20:39 | 39.82180 | -86.15334 | 2973 ft | 160 kts | 218° |
| 2026-04-21 20:40 | 39.81305 | -86.16220 | 2977 ft | 159 kts | 220° |
| 2026-04-21 20:40 | 39.80459 | -86.17150 | 2970 ft | 160 kts | 222° |
| 2026-04-21 20:40 | 39.79642 | -86.18126 | 2872 ft | 159 kts | 225° |
| 2026-04-21 20:40 | 39.78898 | -86.19080 | 2674 ft | 137 kts | 224° |
| 2026-04-21 20:41 | 39.78242 | -86.19920 | 2496 ft | 130 kts | 224° |
| 2026-04-21 20:41 | 39.77595 | -86.20749 | 2343 ft | 132 kts | 224° |
| 2026-04-21 20:41 | 39.76933 | -86.21596 | 2200 ft | 133 kts | 225° |
| 2026-04-21 20:41 | 39.76278 | -86.22437 | 2002 ft | 131 kts | 225° |
| 2026-04-21 20:42 | 39.75643 | -86.23265 | 1850 ft | 128 kts | 226° |
| 2026-04-21 20:42 | 39.75009 | -86.24083 | 1688 ft | 131 kts | 224° |
| 2026-04-21 20:42 | 39.74344 | -86.24902 | 1499 ft | 131 kts | 224° |
| 2026-04-21 20:42 | 39.73698 | -86.25767 | 1312 ft | 134 kts | 223° |
| 2026-04-21 20:43 | 39.73027 | -86.26602 | 1114 ft | 132 kts | 224° |
| 2026-04-21 20:43 | 39.72386 | -86.27433 | 941 ft | 129 kts | 224° |
| 2026-04-21 20:43 | 39.71741 | -86.28254 | 795 ft | 124 kts | 224° |
| 2026-04-21 20:43 | 39.71248 | -86.28880 | 791 ft | 71 kts | 224° |
| 2026-04-21 20:44 | 39.71008 | -86.29189 | 788 ft | 40 kts | 225° |
| 2026-04-21 20:44 | 39.70860 | -86.29375 | 787 ft | 14 kts | 222° |
| 2026-04-21 20:44 | 39.70810 | -86.29391 | 789 ft | 4 kts | 164° |
| 2026-04-21 20:44 | 39.70780 | -86.29364 | 790 ft | 8 kts | 138° |
| 2026-04-21 20:45 | 39.70771 | -86.29314 | 790 ft | 4 kts | 75° |
| 2026-04-21 20:45 | 39.70781 | -86.29294 | 790 ft | 6 kts | 58° |
| 2026-04-21 20:45 | 39.70823 | -86.29225 | 789 ft | 11 kts | 47° |
| 2026-04-21 20:45 | 39.70872 | -86.29161 | 790 ft | 9 kts | 44° |
| 2026-04-21 20:46 | 39.70912 | -86.29110 | 791 ft | 8 kts | 44° |
| 2026-04-21 20:46 | 39.70967 | -86.29040 | 791 ft | 12 kts | 45° |
| 2026-04-21 20:46 | 39.71023 | -86.28968 | 792 ft | 10 kts | 44° |
| 2026-04-21 20:46 | 39.71059 | -86.28922 | 795 ft | 8 kts | 44° |
| 2026-04-21 20:47 | 39.71106 | -86.28863 | 794 ft | 12 kts | 44° |
| 2026-04-21 20:47 | 39.71171 | -86.28782 | 794 ft | 12 kts | 44° |
| 2026-04-21 20:47 | 39.71193 | -86.28721 | 794 ft | 7 kts | 98° |
| 2026-04-21 20:47 | 39.71161 | -86.28661 | 794 ft | 8 kts | 129° |
| 2026-04-21 20:48 | 39.71121 | -86.28623 | 794 ft | 6 kts | 159° |
| 2026-04-21 20:48 | 39.71096 | -86.28618 | 794 ft | 1 kts | 179° |
| 2026-04-21 20:48 | 39.71091 | -86.28619 | 794 ft | 4 kts | 181° |
| 2026-04-21 20:48 | 39.71048 | -86.28632 | 795 ft | 7 kts | 203° |
| 2026-04-21 20:49 | 39.71011 | -86.28668 | 796 ft | 6 kts | 224° |
| 2026-04-21 20:49 | 39.70981 | -86.28708 | 796 ft | 5 kts | 236° |
| 2026-04-21 20:49 | 39.70983 | -86.28751 | 795 ft | 5 kts | 295° |
| 2026-04-21 20:49 | 39.70993 | -86.28765 | 795 ft | 0 kts | 313° |
| 2026-04-21 20:50 | 39.70992 | -86.28764 | 795 ft | 1 kts | 313° |
| 2026-04-21 20:50 | 39.70981 | -86.28751 | 795 ft | 2 kts | 287° |
| 2026-04-21 20:50 | 39.70975 | -86.28761 | 795 ft | 8 kts | 250° |
| 2026-04-21 20:51 | 39.70965 | -86.28822 | 794 ft | 4 kts | 282° |
| 2026-04-21 20:51 | 39.70984 | -86.28854 | 793 ft | 3 kts | 314° |
| 2026-04-21 20:51 | 39.70991 | -86.28864 | 793 ft | 0 kts | 314° |